Time;durP1;ratioP1;P1;durP2;ratioP2;P2;SDS_P1;SDS_P2;PMS_P1;PMS_P2;Temp;Humidity;BMP_temperature;BMP_pressure;BME280_temperature;BME280_humidity;BME280_pressure;Samples;Min_cycle;Max_cycle;Signal;HPM_P1;HPM_P2
2023/03/29 00:00:21;;;;;;;7.87;7.17;;;2.50;64.50;;;;;;6255366;28;20245;-83
2023/03/29 00:03:26;;;;;;;7.97;7.30;;;2.50;64.50;;;;;;6240248;28;20265;-84
2023/03/29 00:06:31;;;;;;;9.37;8.43;;;2.50;64.60;;;;;;6236190;28;20231;-84
2023/03/29 00:09:36;;;;;;;11.63;8.67;;;2.50;64.60;;;;;;6256377;28;20249;-82
2023/03/29 00:12:41;;;;;;;9.30;8.27;;;2.50;64.70;;;;;;6265448;28;20810;-85
2023/03/29 00:15:45;;;;;;;16.77;8.20;;;2.60;64.60;;;;;;6248314;28;20241;-83
2023/03/29 00:18:51;;;;;;;8.53;7.23;;;2.70;65.10;;;;;;6248272;28;20235;-84
2023/03/29 00:21:57;;;;;;;6.90;6.30;;;2.80;65.00;;;;;;6256384;28;20365;-82
2023/03/29 00:25:01;;;;;;;7.83;6.93;;;2.80;64.80;;;;;;6247728;28;20313;-84
2023/03/29 00:28:06;;;;;;;8.63;6.87;;;2.80;64.80;;;;;;6239535;28;20745;-84
2023/03/29 00:31:11;;;;;;;8.43;6.43;;;2.80;65.00;;;;;;6262042;28;20246;-84
2023/03/29 00:34:15;;;;;;;6.97;6.00;;;2.90;65.00;;;;;;6264488;28;20257;-84
2023/03/29 00:37:18;;;;;;;9.93;6.97;;;2.90;64.70;;;;;;6273500;28;20315;-83
2023/03/29 00:40:22;;;;;;;8.87;6.73;;;2.90;64.80;;;;;;6263943;28;20226;-84
2023/03/29 00:43:28;;;;;;;7.83;7.07;;;2.80;64.90;;;;;;6262758;28;20407;-85
2023/03/29 00:46:33;;;;;;;6.53;5.93;;;2.80;64.90;;;;;;6261040;28;20339;-83
2023/03/29 00:49:37;;;;;;;10.67;7.20;;;2.80;65.00;;;;;;6262786;28;20241;-83
2023/03/29 00:52:45;;;;;;;7.20;6.33;;;2.80;65.00;;;;;;6262317;28;20705;-83
2023/03/29 00:55:52;;;;;;;7.43;6.77;;;2.80;65.10;;;;;;6260130;28;20233;-83
2023/03/29 00:59:02;;;;;;;9.90;7.43;;;2.80;65.10;;;;;;6248797;28;20241;-85
2023/03/29 01:02:07;;;;;;;7.30;6.70;;;2.80;65.00;;;;;;6256370;28;20239;-82
2023/03/29 01:05:15;;;;;;;9.03;6.67;;;2.80;65.00;;;;;;6273366;28;20381;-84
2023/03/29 01:08:24;;;;;;;8.00;7.20;;;2.80;65.00;;;;;;6257332;28;20233;-82
2023/03/29 01:11:32;;;;;;;7.93;7.07;;;2.80;65.00;;;;;;6248241;28;20250;-84
2023/03/29 01:14:40;;;;;;;8.00;7.27;;;2.80;65.00;;;;;;6263630;28;20230;-84
2023/03/29 01:17:49;;;;;;;7.80;7.00;;;2.80;64.90;;;;;;6272584;28;20242;-82
2023/03/29 01:21:11;;;;;;;7.50;6.57;;;2.80;65.00;;;;;;6263427;28;20736;-85
2023/03/29 01:24:32;;;;;;;7.47;6.67;;;2.80;65.00;;;;;;6262412;28;20233;-83
2023/03/29 01:27:50;;;;;;;7.27;6.57;;;2.70;65.20;;;;;;6283738;28;20237;-84
2023/03/29 01:31:02;;;;;;;7.33;6.63;;;2.70;65.00;;;;;;6292471;28;20374;-84
2023/03/29 01:34:11;;;;;;;6.47;5.97;;;2.70;65.00;;;;;;6311117;28;20224;-83
2023/03/29 01:37:23;;;;;;;6.10;5.40;;;2.70;65.00;;;;;;6296629;28;20226;-84
2023/03/29 01:40:27;;;;;;;8.57;6.63;;;2.80;64.90;;;;;;6293728;28;20232;-83
2023/03/29 01:43:37;;;;;;;8.57;5.27;;;2.80;64.80;;;;;;6306715;28;20225;-82
2023/03/29 01:46:45;;;;;;;6.20;5.60;;;2.80;64.70;;;;;;6271829;28;20223;-84
2023/03/29 01:49:59;;;;;;;6.80;6.00;;;2.70;64.80;;;;;;6277738;28;20226;-83
2023/03/29 01:53:06;;;;;;;8.03;7.23;;;2.80;64.80;;;;;;6249588;28;20244;-82
2023/03/29 01:56:13;;;;;;;7.40;6.77;;;2.70;64.70;;;;;;6266253;28;20261;-83
2023/03/29 01:59:22;;;;;;;8.87;5.80;;;2.80;64.80;;;;;;6263859;28;20283;-84
2023/03/29 02:02:28;;;;;;;8.03;5.90;;;2.70;64.90;;;;;;6259263;28;20507;-84
2023/03/29 02:05:33;;;;;;;7.20;5.70;;;2.80;64.70;;;;;;6261572;28;20306;-84
2023/03/29 02:08:38;;;;;;;7.83;5.90;;;2.80;64.60;;;;;;6264895;28;20647;-84
2023/03/29 02:11:44;;;;;;;7.13;5.73;;;2.90;64.40;;;;;;6284007;28;20558;-83
2023/03/29 02:14:48;;;;;;;9.63;5.80;;;2.90;64.20;;;;;;6280304;28;20260;-83
2023/03/29 02:17:52;;;;;;;6.10;5.60;;;2.90;64.30;;;;;;6301308;28;20230;-83
2023/03/29 02:20:57;;;;;;;7.00;5.57;;;2.90;64.40;;;;;;6300137;28;20256;-82
2023/03/29 02:24:06;;;;;;;9.70;6.03;;;2.90;64.10;;;;;;6301282;28;20301;-84
2023/03/29 02:27:09;;;;;;;6.40;6.00;;;2.90;64.20;;;;;;6302080;28;20221;-81
2023/03/29 02:30:19;;;;;;;7.37;5.97;;;2.80;64.40;;;;;;6287484;28;20318;-82
2023/03/29 02:33:27;;;;;;;7.40;6.57;;;2.80;64.40;;;;;;6305157;28;20301;-87
2023/03/29 02:36:37;;;;;;;6.77;6.27;;;2.70;64.50;;;;;;6233810;28;20724;-84
2023/03/29 02:39:41;;;;;;;6.37;5.80;;;2.70;64.70;;;;;;6265587;28;20229;-85
2023/03/29 02:42:46;;;;;;;12.13;6.37;;;2.70;64.50;;;;;;6264976;28;20232;-84
2023/03/29 02:45:55;;;;;;;8.87;6.40;;;2.70;64.80;;;;;;6268307;28;20320;-83
2023/03/29 02:49:00;;;;;;;6.63;6.13;;;2.70;64.20;;;;;;6268773;28;20356;-84
2023/03/29 02:52:08;;;;;;;7.60;6.30;;;2.70;64.30;;;;;;6267677;28;20615;-84
2023/03/29 02:55:16;;;;;;;7.40;6.80;;;2.70;64.40;;;;;;6262014;28;20714;-83
2023/03/29 02:58:19;;;;;;;6.77;6.27;;;2.50;64.70;;;;;;6266105;28;20237;-83
2023/03/29 03:01:25;;;;;;;7.93;6.60;;;2.50;64.60;;;;;;6268326;28;20230;-83
2023/03/29 03:04:28;;;;;;;8.47;7.13;;;2.50;64.70;;;;;;6262144;28;20230;-84
2023/03/29 03:07:32;;;;;;;7.30;6.73;;;2.50;64.70;;;;;;6268911;28;20241;-83
2023/03/29 03:10:36;;;;;;;7.70;7.10;;;2.50;64.70;;;;;;6256413;28;20741;-83
2023/03/29 03:13:39;;;;;;;7.47;6.77;;;2.50;64.70;;;;;;6268466;28;20608;-83
2023/03/29 03:16:44;;;;;;;8.13;7.33;;;2.40;64.70;;;;;;6271174;28;20403;-82
2023/03/29 03:19:48;;;;;;;9.73;8.70;;;2.40;64.80;;;;;;6269804;28;20500;-85
2023/03/29 03:22:51;;;;;;;11.90;8.43;;;2.40;64.70;;;;;;6273797;28;20847;-84
2023/03/29 03:25:55;;;;;;;12.53;8.50;;;2.40;64.70;;;;;;6272174;28;20241;-84
2023/03/29 03:28:59;;;;;;;9.20;8.13;;;2.40;64.90;;;;;;6278444;28;20242;-84
2023/03/29 03:32:05;;;;;;;12.27;8.83;;;2.30;65.00;;;;;;6250291;28;20234;-84
2023/03/29 03:35:10;;;;;;;10.00;9.07;;;2.20;65.50;;;;;;6272329;28;20269;-83
2023/03/29 03:38:14;;;;;;;10.23;9.23;;;2.20;65.60;;;;;;6264192;28;20247;-84
2023/03/29 03:41:17;;;;;;;12.33;9.27;;;2.20;65.60;;;;;;6253151;28;20369;-83
2023/03/29 03:44:20;;;;;;;10.93;8.50;;;2.10;65.80;;;;;;6268837;28;20294;-83
2023/03/29 03:47:25;;;;;;;11.47;8.90;;;2.10;65.80;;;;;;6257636;28;20794;-84
2023/03/29 03:50:28;;;;;;;9.47;8.40;;;2.10;65.80;;;;;;6263356;28;20265;-84
2023/03/29 03:53:32;;;;;;;17.30;8.57;;;2.10;65.60;;;;;;6265078;28;20264;-85
2023/03/29 03:56:36;;;;;;;9.17;8.17;;;2.10;65.80;;;;;;6262871;28;20709;-83
2023/03/29 03:59:39;;;;;;;13.37;8.33;;;2.10;65.90;;;;;;6258637;28;20230;-83
2023/03/29 04:02:44;;;;;;;9.57;8.33;;;2.00;65.80;;;;;;6263747;28;20226;-83
2023/03/29 04:05:47;;;;;;;9.10;7.90;;;2.10;65.80;;;;;;6257654;28;20230;-84
2023/03/29 04:08:52;;;;;;;8.30;7.53;;;2.10;65.70;;;;;;6265402;28;20233;-84
2023/03/29 04:11:55;;;;;;;9.93;8.10;;;2.10;65.50;;;;;;6274727;28;20609;-84
2023/03/29 04:14:59;;;;;;;9.33;8.37;;;2.10;65.60;;;;;;6260477;28;20229;-83
2023/03/29 04:18:06;;;;;;;7.90;7.10;;;2.00;65.70;;;;;;6263910;28;20329;-84
2023/03/29 04:21:10;;;;;;;7.80;6.97;;;2.00;65.80;;;;;;6249989;28;20272;-79
2023/03/29 04:24:14;;;;;;;13.83;7.97;;;2.00;65.80;;;;;;6245196;28;20258;-78
2023/03/29 04:27:17;;;;;;;8.33;7.50;;;2.00;65.80;;;;;;6257509;28;20276;-76
2023/03/29 04:30:21;;;;;;;7.80;7.20;;;2.00;66.00;;;;;;6260717;28;20380;-79
2023/03/29 04:33:25;;;;;;;10.93;7.47;;;2.00;65.90;;;;;;6254312;28;20448;-80
2023/03/29 04:36:28;;;;;;;12.13;7.43;;;2.00;65.80;;;;;;6230223;28;20537;-77
2023/03/29 04:39:32;;;;;;;9.83;6.97;;;1.90;66.00;;;;;;6254130;28;20234;-76
2023/03/29 04:42:36;;;;;;;8.03;7.23;;;2.00;65.90;;;;;;6198820;28;1173284;-76
2023/03/29 04:45:40;;;;;;;8.10;7.43;;;2.00;65.70;;;;;;6255489;28;20297;-81
2023/03/29 04:48:44;;;;;;;7.80;7.10;;;1.90;65.90;;;;;;6261317;28;20234;-78
2023/03/29 04:51:47;;;;;;;7.77;6.70;;;1.90;66.20;;;;;;6259854;28;20234;-79
2023/03/29 04:54:50;;;;;;;7.43;6.73;;;1.80;66.40;;;;;;6247833;28;20230;-78
2023/03/29 04:57:54;;;;;;;7.10;6.47;;;1.80;66.20;;;;;;6250898;28;20235;-77
2023/03/29 05:00:58;;;;;;;6.93;6.47;;;1.90;66.20;;;;;;6251699;28;20267;-79
2023/03/29 05:04:03;;;;;;;9.43;6.70;;;1.90;66.20;;;;;;6243023;28;20245;-81
2023/03/29 05:07:06;;;;;;;7.07;6.47;;;1.90;66.10;;;;;;6255250;28;20230;-79
2023/03/29 05:10:10;;;;;;;11.27;6.80;;;1.90;66.10;;;;;;6254067;28;20261;-79
2023/03/29 05:13:15;;;;;;;9.90;6.93;;;1.90;66.10;;;;;;6269456;28;20237;-77
2023/03/29 05:16:19;;;;;;;12.43;7.57;;;2.00;66.00;;;;;;6257739;28;20280;-79
2023/03/29 05:19:24;;;;;;;8.30;7.10;;;1.90;66.10;;;;;;6259225;28;20356;-80
2023/03/29 05:22:28;;;;;;;7.07;6.53;;;2.00;66.00;;;;;;6260209;28;20244;-78
2023/03/29 05:25:32;;;;;;;7.30;6.57;;;2.00;65.90;;;;;;6253689;28;20245;-79
2023/03/29 05:28:35;;;;;;;8.57;6.67;;;2.10;65.70;;;;;;6249706;28;20508;-77
2023/03/29 05:31:38;;;;;;;8.17;6.97;;;2.00;65.60;;;;;;6256978;28;20241;-80
2023/03/29 05:34:43;;;;;;;8.63;7.33;;;2.10;65.50;;;;;;6254815;28;20714;-78
2023/03/29 05:37:47;;;;;;;14.47;7.10;;;2.10;65.10;;;;;;6260438;28;20241;-77
2023/03/29 05:40:50;;;;;;;10.13;7.03;;;2.20;64.90;;;;;;6253929;28;20238;-79
2023/03/29 05:43:53;;;;;;;7.20;6.50;;;2.20;64.80;;;;;;6260523;28;20681;-78
2023/03/29 05:46:56;;;;;;;13.80;8.03;;;2.20;64.90;;;;;;6261456;28;20234;-79
2023/03/29 05:50:01;;;;;;;8.43;7.53;;;2.20;64.80;;;;;;6252510;28;20736;-77
2023/03/29 05:53:04;;;;;;;7.17;6.40;;;2.30;64.70;;;;;;6251955;28;20833;-80
2023/03/29 05:56:09;;;;;;;8.10;6.87;;;2.30;64.40;;;;;;6257665;28;20226;-76
2023/03/29 05:59:13;;;;;;;7.57;6.90;;;2.40;63.90;;;;;;6256428;28;20344;-76
2023/03/29 06:02:18;;;;;;;7.57;6.70;;;2.50;63.80;;;;;;6257297;28;20233;-79
2023/03/29 06:05:23;;;;;;;11.87;6.53;;;2.50;63.90;;;;;;6254955;28;20730;-79
2023/03/29 06:08:27;;;;;;;7.60;7.00;;;2.70;63.40;;;;;;6254325;28;20257;-77
2023/03/29 06:11:30;;;;;;;11.67;7.37;;;2.80;63.50;;;;;;6225889;28;20245;-78
2023/03/29 06:14:36;;;;;;;7.40;6.70;;;2.80;63.50;;;;;;6256380;28;20233;-78
2023/03/29 06:17:40;;;;;;;12.97;6.83;;;2.80;63.10;;;;;;6264068;28;20230;-78
2023/03/29 06:20:48;;;;;;;9.37;7.40;;;3.00;62.60;;;;;;6233614;28;20730;-78
2023/03/29 06:23:52;;;;;;;8.03;6.97;;;3.00;62.80;;;;;;6261439;28;20233;-79
2023/03/29 06:26:55;;;;;;;8.57;7.20;;;2.90;62.70;;;;;;6251764;28;20226;-80
2023/03/29 06:29:58;;;;;;;13.97;7.57;;;3.00;63.00;;;;;;6253183;28;20246;-79
2023/03/29 06:33:01;;;;;;;8.10;7.30;;;3.10;62.80;;;;;;6257619;28;20248;-79
2023/03/29 06:36:14;;;;;;;8.60;6.90;;;3.10;62.70;;;;;;6251997;28;20241;-77
2023/03/29 06:39:18;;;;;;;8.07;7.23;;;3.10;62.10;;;;;;6252894;28;20764;-79
2023/03/29 06:42:22;;;;;;;8.73;7.83;;;3.10;62.50;;;;;;6264128;28;20241;-81
2023/03/29 06:45:25;;;;;;;7.57;6.83;;;3.10;62.00;;;;;;6266635;28;20362;-77
2023/03/29 06:48:31;;;;;;;8.07;7.27;;;3.30;61.90;;;;;;6230749;28;20484;-80
2023/03/29 06:51:38;;;;;;;9.77;6.83;;;3.20;62.10;;;;;;6212944;28;20644;-78
2023/03/29 06:54:41;;;;;;;8.30;7.13;;;3.50;61.70;;;;;;6256850;28;20367;-80
2023/03/29 06:57:45;;;;;;;6.80;6.17;;;3.50;61.30;;;;;;6258196;28;20234;-78
2023/03/29 07:00:48;;;;;;;10.73;6.93;;;3.50;61.40;;;;;;6242935;28;20241;-78
2023/03/29 07:03:51;;;;;;;7.13;6.63;;;3.50;61.80;;;;;;6257216;28;20226;-77
2023/03/29 07:07:02;;;;;;;8.20;6.63;;;3.70;60.90;;;;;;6256433;28;20237;-80
2023/03/29 07:10:09;;;;;;;10.87;7.03;;;3.70;61.00;;;;;;6232615;28;20405;-79
2023/03/29 07:13:14;;;;;;;14.13;7.03;;;3.60;61.00;;;;;;6251661;28;20242;-78
2023/03/29 07:16:18;;;;;;;7.77;6.73;;;3.60;61.20;;;;;;6273513;28;20257;-80
2023/03/29 07:19:24;;;;;;;7.80;6.80;;;3.50;61.60;;;;;;6259868;28;20448;-81
2023/03/29 07:22:28;;;;;;;9.10;7.17;;;3.50;61.70;;;;;;6252125;28;20313;-80
2023/03/29 07:25:32;;;;;;;9.17;7.33;;;3.70;62.30;;;;;;6256884;28;20238;-79
2023/03/29 07:28:39;;;;;;;10.23;7.43;;;3.90;61.80;;;;;;6231484;28;20240;-77
2023/03/29 07:31:43;;;;;;;7.30;6.70;;;3.90;61.40;;;;;;6248291;28;20230;-77
2023/03/29 07:34:48;;;;;;;10.23;7.57;;;3.90;61.50;;;;;;6257827;28;20232;-79
2023/03/29 07:37:53;;;;;;;8.37;7.00;;;4.10;61.30;;;;;;6255987;28;20614;-79
2023/03/29 07:40:57;;;;;;;9.17;7.43;;;4.20;61.30;;;;;;6251949;28;20258;-76
2023/03/29 07:44:07;;;;;;;7.93;6.80;;;4.20;60.90;;;;;;6248373;28;20264;-79
2023/03/29 07:47:11;;;;;;;12.07;6.57;;;4.30;60.80;;;;;;6265501;28;20252;-80
2023/03/29 07:50:15;;;;;;;9.60;6.80;;;4.50;60.80;;;;;;6282026;28;20734;-79
2023/03/29 07:53:19;;;;;;;7.30;6.70;;;4.90;60.20;;;;;;6277973;28;20238;-78
2023/03/29 07:56:23;;;;;;;7.07;6.10;;;5.00;60.10;;;;;;6263403;28;20230;-78
2023/03/29 07:59:27;;;;;;;6.80;6.10;;;5.30;58.80;;;;;;6232445;28;20283;-80
2023/03/29 08:02:30;;;;;;;7.23;6.70;;;5.50;58.50;;;;;;6252978;28;20480;-79
2023/03/29 08:05:38;;;;;;;9.67;6.87;;;5.60;58.50;;;;;;6255096;28;20737;-79
2023/03/29 08:08:45;;;;;;;7.70;6.10;;;5.70;58.30;;;;;;6249385;28;20223;-80
2023/03/29 08:11:49;;;;;;;6.13;5.80;;;5.80;57.90;;;;;;6254331;28;20245;-77
2023/03/29 08:14:52;;;;;;;7.00;6.40;;;5.80;57.90;;;;;;6254805;28;20233;-79
2023/03/29 08:17:55;;;;;;;6.97;6.27;;;5.90;57.20;;;;;;6254142;28;20276;-79
2023/03/29 08:20:59;;;;;;;5.90;5.60;;;6.00;58.20;;;;;;6249442;28;20237;-76
2023/03/29 08:24:10;;;;;;;7.47;5.87;;;5.90;57.70;;;;;;6241664;28;20230;-79
2023/03/29 08:27:15;;;;;;;6.40;6.00;;;5.80;58.10;;;;;;6268652;28;20241;-77
2023/03/29 08:30:18;;;;;;;5.90;5.40;;;5.80;58.30;;;;;;6259404;28;20689;-78
2023/03/29 08:33:23;;;;;;;9.03;6.10;;;5.90;57.90;;;;;;6258122;28;20245;-79
2023/03/29 08:36:27;;;;;;;6.30;5.70;;;6.10;57.80;;;;;;6271767;28;20601;-79
2023/03/29 08:39:36;;;;;;;10.53;5.80;;;6.30;57.80;;;;;;6255574;28;20238;-80
2023/03/29 08:43:08;;;;;;;6.47;5.80;;;6.30;58.00;;;;;;6254270;28;20238;-78
2023/03/29 08:46:19;;;;;;;8.23;6.00;;;6.40;57.10;;;;;;6251151;28;20296;-80
2023/03/29 08:49:25;;;;;;;6.30;5.80;;;6.40;57.50;;;;;;6253532;28;20741;-78
2023/03/29 08:52:36;;;;;;;6.83;5.47;;;6.60;58.40;;;;;;6249277;28;20484;-80
2023/03/29 08:55:43;;;;;;;7.77;5.70;;;6.80;56.80;;;;;;6249605;28;20801;-80
2023/03/29 08:58:47;;;;;;;5.90;5.10;;;7.00;56.90;;;;;;6250759;28;20233;-79
2023/03/29 09:01:55;;;;;;;5.47;5.10;;;7.30;56.50;;;;;;6247026;28;20634;-79
2023/03/29 09:05:13;;;;;;;5.67;5.17;;;7.00;57.40;;;;;;6244741;28;20237;-77
2023/03/29 09:08:19;;;;;;;7.73;5.77;;;7.00;57.80;;;;;;6266432;28;20279;-80
2023/03/29 09:11:47;;;;;;;8.87;6.43;;;7.20;58.50;;;;;;6251991;28;20787;-81
2023/03/29 09:15:05;;;;;;;6.07;5.27;;;7.40;57.90;;;;;;6283231;28;20649;-80
2023/03/29 09:18:17;;;;;;;5.63;5.13;;;7.60;58.40;;;;;;6262061;28;20227;-78
2023/03/29 09:21:28;;;;;;;6.53;5.93;;;8.00;57.00;;;;;;6258725;28;20241;-79
2023/03/29 09:24:52;;;;;;;5.93;5.47;;;7.90;57.60;;;;;;6275607;28;20233;-79
2023/03/29 09:28:04;;;;;;;5.80;5.30;;;8.00;56.90;;;;;;6280387;28;20245;-79
2023/03/29 09:31:14;;;;;;;5.57;4.97;;;8.10;57.20;;;;;;6264593;28;20242;-79
2023/03/29 09:34:22;;;;;;;5.83;5.47;;;8.20;56.80;;;;;;6246259;28;20313;-79
2023/03/29 09:37:32;;;;;;;6.17;5.77;;;8.20;57.40;;;;;;6230185;28;20248;-77
2023/03/29 09:40:45;;;;;;;5.70;5.20;;;8.40;56.70;;;;;;6241155;28;20242;-78
2023/03/29 09:43:51;;;;;;;5.73;5.20;;;8.50;56.80;;;;;;6235298;28;20262;-79
2023/03/29 09:46:57;;;;;;;5.03;4.73;;;8.60;56.00;;;;;;6251456;28;20234;-80
2023/03/29 09:50:06;;;;;;;5.27;4.97;;;8.70;56.10;;;;;;6259205;28;20230;-78
2023/03/29 09:53:25;;;;;;;5.27;4.87;;;8.90;56.10;;;;;;6260138;28;20226;-79
2023/03/29 09:56:29;;;;;;;5.83;4.73;;;9.00;56.20;;;;;;6274223;28;20259;-76
2023/03/29 09:59:34;;;;;;;4.73;4.53;;;9.20;55.80;;;;;;6277116;28;20244;-79
2023/03/29 10:02:37;;;;;;;5.27;4.97;;;9.40;55.00;;;;;;6280694;28;20234;-78
2023/03/29 10:05:40;;;;;;;5.90;5.50;;;9.50;55.20;;;;;;6282394;28;20264;-76
2023/03/29 10:08:47;;;;;;;5.20;4.80;;;9.60;55.10;;;;;;6267252;28;20235;-78
2023/03/29 10:11:53;;;;;;;5.83;4.97;;;9.70;55.00;;;;;;6279265;28;20238;-76
2023/03/29 10:15:00;;;;;;;4.90;4.60;;;9.80;54.70;;;;;;6266536;28;20241;-73
2023/03/29 10:18:09;;;;;;;4.77;4.67;;;10.00;54.30;;;;;;6275667;28;20250;-76
2023/03/29 10:21:14;;;;;;;5.73;5.30;;;9.90;54.70;;;;;;6273745;28;20749;-78
2023/03/29 10:24:22;;;;;;;6.03;5.10;;;9.70;55.10;;;;;;6282691;28;20293;-78
2023/03/29 10:27:28;;;;;;;5.73;5.23;;;9.60;55.30;;;;;;6271999;28;20686;-79
2023/03/29 10:30:37;;;;;;;5.73;5.13;;;9.70;55.10;;;;;;6270074;28;20318;-76
2023/03/29 10:33:40;;;;;;;5.63;5.20;;;9.70;55.20;;;;;;6272290;28;20288;-77
2023/03/29 10:36:47;;;;;;;5.33;5.03;;;10.00;55.50;;;;;;6274410;28;20301;-76
2023/03/29 10:39:51;;;;;;;5.50;4.93;;;10.10;55.10;;;;;;6264402;28;20284;-78
2023/03/29 10:42:59;;;;;;;5.50;5.03;;;10.40;54.30;;;;;;6270339;28;20230;-79
2023/03/29 10:46:11;;;;;;;5.23;4.90;;;10.80;53.50;;;;;;6264159;28;20235;-79
2023/03/29 10:49:18;;;;;;;5.40;4.90;;;10.70;53.50;;;;;;6268291;28;20235;-77
2023/03/29 10:52:25;;;;;;;5.17;4.80;;;10.80;53.40;;;;;;6280798;28;20699;-76
2023/03/29 10:55:34;;;;;;;4.83;4.63;;;10.90;53.80;;;;;;6272087;28;20233;-81
2023/03/29 10:58:46;;;;;;;4.80;4.37;;;11.00;53.60;;;;;;6284788;28;20364;-78
2023/03/29 11:02:17;;;;;;;5.00;4.70;;;11.10;53.20;;;;;;6275398;28;20230;-78
2023/03/29 11:05:25;;;;;;;4.90;4.70;;;11.00;53.50;;;;;;6263745;28;20234;-80
2023/03/29 11:08:40;;;;;;;5.80;5.30;;;10.90;53.30;;;;;;6271299;28;20277;-80
2023/03/29 11:12:08;;;;;;;4.90;4.70;;;10.50;54.00;;;;;;6287127;28;20775;-82
2023/03/29 11:15:30;;;;;;;5.00;4.60;;;10.70;54.10;;;;;;6275655;28;20222;-81
2023/03/29 11:18:50;;;;;;;5.00;4.80;;;10.70;53.90;;;;;;6281868;28;20230;-79
2023/03/29 11:22:02;;;;;;;5.27;4.87;;;10.60;54.20;;;;;;6296312;28;20294;-81
2023/03/29 11:25:29;;;;;;;5.83;5.33;;;10.70;54.00;;;;;;6295304;28;20469;-77
2023/03/29 11:28:39;;;;;;;5.80;5.40;;;10.70;54.40;;;;;;6285503;28;20246;-76
2023/03/29 11:31:53;;;;;;;4.93;4.63;;;10.50;53.90;;;;;;6295186;28;20241;-78
2023/03/29 11:35:18;;;;;;;4.63;4.30;;;10.50;53.90;;;;;;6264571;28;20218;-77
2023/03/29 11:38:27;;;;;;;5.33;5.00;;;10.40;54.00;;;;;;6284095;28;20242;-80
2023/03/29 11:41:34;;;;;;;5.73;5.23;;;10.20;54.60;;;;;;6278674;28;20230;-79
2023/03/29 11:44:40;;;;;;;7.13;5.30;;;10.40;55.00;;;;;;6266994;28;20229;-81
2023/03/29 11:47:46;;;;;;;5.47;5.17;;;10.60;54.20;;;;;;6273979;28;20315;-79
2023/03/29 11:50:55;;;;;;;4.67;4.27;;;11.10;53.90;;;;;;6255760;28;20256;-81
2023/03/29 11:54:03;;;;;;;5.27;4.90;;;11.40;53.40;;;;;;6256234;28;20249;-80
2023/03/29 11:57:14;;;;;;;5.17;4.97;;;11.50;52.90;;;;;;6266657;28;20372;-81
2023/03/29 12:00:22;;;;;;;5.50;5.30;;;11.10;53.30;;;;;;6272429;28;20249;-79
2023/03/29 12:03:37;;;;;;;6.20;5.60;;;10.90;54.50;;;;;;6257513;28;20462;-80
2023/03/29 12:06:51;;;;;;;6.03;5.63;;;11.10;54.10;;;;;;6273614;28;20238;-78
2023/03/29 12:09:58;;;;;;;6.40;6.00;;;11.40;53.40;;;;;;6278663;28;20247;-79
2023/03/29 12:13:05;;;;;;;5.93;5.43;;;11.40;52.60;;;;;;6289681;28;20218;-77
2023/03/29 12:16:15;;;;;;;5.67;5.17;;;11.60;52.50;;;;;;6289063;28;20234;-78
2023/03/29 12:19:22;;;;;;;6.33;5.77;;;11.50;53.10;;;;;;6290358;28;20230;-76
2023/03/29 12:22:27;;;;;;;6.50;6.00;;;11.50;53.00;;;;;;6287597;28;20485;-81
2023/03/29 12:25:37;;;;;;;5.80;5.50;;;11.50;53.50;;;;;;6273148;28;20237;-81
2023/03/29 12:29:07;;;;;;;6.30;5.80;;;11.70;53.00;;;;;;6268704;28;20238;-81
2023/03/29 12:32:32;;;;;;;5.50;5.07;;;11.40;53.30;;;;;;6261567;28;20900;-79
2023/03/29 12:35:44;;;;;;;5.43;4.93;;;11.50;52.20;;;;;;6259074;28;20543;-80
2023/03/29 12:38:52;;;;;;;5.77;5.27;;;11.30;52.60;;;;;;6258046;28;20238;-80
2023/03/29 12:42:07;;;;;;;5.70;5.30;;;11.10;52.20;;;;;;6258705;28;20329;-81
2023/03/29 12:45:18;;;;;;;5.60;5.30;;;11.10;52.50;;;;;;6266563;28;20230;-81
2023/03/29 12:48:25;;;;;;;5.67;5.37;;;11.00;52.90;;;;;;6261517;28;20302;-82
2023/03/29 12:51:31;;;;;;;7.63;5.37;;;11.10;52.80;;;;;;6258659;28;20242;-82
2023/03/29 12:54:36;;;;;;;5.57;5.27;;;11.10;52.40;;;;;;6275268;28;20234;-81
2023/03/29 12:57:41;;;;;;;6.03;5.43;;;11.10;53.40;;;;;;6282633;28;20364;-80
2023/03/29 13:00:49;;;;;;;5.23;4.90;;;11.10;53.40;;;;;;6261709;28;20315;-80
2023/03/29 13:03:57;;;;;;;5.80;5.10;;;11.10;52.70;;;;;;6259745;28;20244;-80
2023/03/29 13:07:05;;;;;;;5.20;4.90;;;10.90;52.60;;;;;;6254463;28;20262;-80
2023/03/29 13:10:30;;;;;;;5.97;5.57;;;11.00;53.30;;;;;;6276176;28;20234;-78
2023/03/29 13:13:36;;;;;;;5.67;5.37;;;11.30;52.90;;;;;;6255694;28;20238;-81
2023/03/29 13:16:41;;;;;;;5.47;5.03;;;11.40;52.30;;;;;;6251964;28;20796;-81
2023/03/29 13:19:48;;;;;;;6.03;5.60;;;11.20;52.70;;;;;;6262411;28;20230;-80
2023/03/29 13:23:03;;;;;;;5.30;5.00;;;11.10;52.80;;;;;;6254494;28;20240;-81
2023/03/29 13:26:34;;;;;;;6.00;5.40;;;11.00;53.20;;;;;;6260104;28;20245;-82
2023/03/29 13:29:56;;;;;;;5.07;4.77;;;10.90;53.60;;;;;;6278206;28;20237;-79
2023/03/29 13:33:13;;;;;;;6.10;5.60;;;11.00;53.00;;;;;;6255635;28;20252;-81
2023/03/29 13:36:30;;;;;;;5.27;4.73;;;11.00;52.80;;;;;;6287115;28;20309;-80
2023/03/29 13:39:36;;;;;;;5.33;5.03;;;10.70;53.10;;;;;;6261228;28;20277;-80
2023/03/29 13:42:41;;;;;;;5.27;4.97;;;10.60;53.30;;;;;;6251812;28;20879;-80
2023/03/29 13:46:03;;;;;;;5.20;4.97;;;10.40;53.50;;;;;;6253392;28;20325;-80
2023/03/29 13:49:15;;;;;;;5.57;5.17;;;10.30;53.70;;;;;;6255951;28;21764;-79
2023/03/29 13:52:24;;;;;;;5.67;5.37;;;10.50;53.50;;;;;;6251867;28;20245;-81
2023/03/29 13:55:32;;;;;;;5.67;5.20;;;10.60;54.00;;;;;;6256547;28;20241;-79
2023/03/29 13:58:47;;;;;;;5.50;5.20;;;10.60;53.90;;;;;;6248451;28;20307;-80
2023/03/29 14:01:56;;;;;;;5.10;4.90;;;10.70;53.70;;;;;;6261277;28;20751;-78
2023/03/29 14:05:03;;;;;;;6.03;5.63;;;10.40;54.40;;;;;;6246937;28;20248;-79
2023/03/29 14:08:13;;;;;;;5.83;5.47;;;10.60;54.20;;;;;;6264665;28;20241;-77
2023/03/29 14:11:22;;;;;;;10.27;5.97;;;10.70;54.40;;;;;;6271174;28;20241;-80
2023/03/29 14:14:30;;;;;;;6.67;5.87;;;10.60;54.20;;;;;;6241157;28;20336;-79
2023/03/29 14:17:36;;;;;;;5.90;5.40;;;10.40;54.60;;;;;;6263624;28;20248;-79
2023/03/29 14:20:44;;;;;;;5.23;4.80;;;10.40;54.90;;;;;;6254900;28;20584;-82
2023/03/29 14:23:54;;;;;;;5.70;5.30;;;10.50;54.20;;;;;;6252955;28;20238;-77
2023/03/29 14:26:57;;;;;;;6.00;5.70;;;10.70;54.70;;;;;;6262767;28;20295;-82
2023/03/29 14:30:01;;;;;;;6.40;6.00;;;10.70;54.40;;;;;;6256476;28;20609;-81
2023/03/29 14:33:04;;;;;;;5.53;5.13;;;10.60;54.70;;;;;;6257252;28;20242;-79
2023/03/29 14:36:14;;;;;;;7.63;5.47;;;10.60;54.70;;;;;;6257507;28;20229;-78
2023/03/29 14:39:19;;;;;;;6.10;5.80;;;10.60;54.70;;;;;;6257493;28;20620;-81
2023/03/29 14:42:26;;;;;;;6.33;5.83;;;10.40;54.70;;;;;;6264997;28;20241;-80
2023/03/29 14:45:31;;;;;;;6.40;6.10;;;10.20;55.30;;;;;;6264257;28;20736;-77
2023/03/29 14:48:34;;;;;;;6.83;6.40;;;10.20;55.70;;;;;;6261636;28;20237;-81
2023/03/29 14:51:39;;;;;;;7.17;6.50;;;10.00;55.50;;;;;;6261879;28;20241;-81
2023/03/29 14:54:48;;;;;;;6.53;6.13;;;10.00;55.80;;;;;;6265149;28;20234;-81
2023/03/29 14:57:53;;;;;;;7.10;6.70;;;10.00;56.20;;;;;;6259937;28;20256;-81
2023/03/29 15:01:03;;;;;;;6.90;6.20;;;10.10;56.70;;;;;;6250802;28;20241;-76
2023/03/29 15:04:09;;;;;;;6.40;6.00;;;10.00;56.60;;;;;;6262641;28;20245;-81
2023/03/29 15:07:13;;;;;;;6.20;5.90;;;10.00;56.80;;;;;;6266316;28;20751;-80
2023/03/29 15:10:19;;;;;;;6.53;6.03;;;10.00;57.00;;;;;;6285132;28;20269;-78
2023/03/29 15:13:24;;;;;;;7.83;7.10;;;10.10;56.60;;;;;;6275090;28;20614;-80
2023/03/29 15:16:30;;;;;;;7.33;6.83;;;10.10;57.10;;;;;;6260317;28;20734;-79
2023/03/29 15:19:33;;;;;;;7.50;6.80;;;10.10;57.10;;;;;;6241662;28;20249;-81
2023/03/29 15:22:39;;;;;;;7.03;6.43;;;10.10;56.80;;;;;;6255171;28;20254;-77
2023/03/29 15:25:48;;;;;;;7.63;7.13;;;10.10;57.10;;;;;;6263240;28;20758;-80
2023/03/29 15:28:54;;;;;;;9.00;6.80;;;10.10;57.50;;;;;;6263333;28;20365;-81
2023/03/29 15:31:59;;;;;;;8.43;7.53;;;10.10;57.80;;;;;;6268612;28;20325;-78
2023/03/29 15:35:04;;;;;;;7.20;6.70;;;10.10;58.40;;;;;;6264587;28;20256;-80
2023/03/29 15:38:11;;;;;;;7.53;6.83;;;10.10;59.30;;;;;;6259230;28;20234;-79
2023/03/29 15:41:14;;;;;;;7.67;7.10;;;10.20;58.70;;;;;;6259370;28;20240;-81
2023/03/29 15:44:20;;;;;;;8.97;8.00;;;10.20;58.90;;;;;;6261304;28;20234;-81
2023/03/29 15:47:25;;;;;;;8.17;7.47;;;10.10;59.40;;;;;;6260085;28;20469;-79
2023/03/29 15:50:28;;;;;;;8.13;7.60;;;10.20;59.10;;;;;;6268815;28;20295;-81
2023/03/29 15:53:31;;;;;;;8.97;8.20;;;10.30;59.20;;;;;;6262082;28;20801;-77
2023/03/29 15:56:37;;;;;;;7.90;7.33;;;10.40;59.20;;;;;;6267592;28;20234;-78
2023/03/29 15:59:43;;;;;;;8.23;7.63;;;10.40;58.70;;;;;;6277515;28;20227;-79
2023/03/29 16:02:47;;;;;;;9.63;8.73;;;10.40;58.70;;;;;;6261646;28;20234;-83
2023/03/29 16:05:53;;;;;;;9.30;8.40;;;10.40;58.90;;;;;;6276502;28;20750;-81
2023/03/29 16:08:56;;;;;;;9.43;8.63;;;10.30;59.00;;;;;;6254164;28;20250;-80
2023/03/29 16:12:00;;;;;;;9.33;8.53;;;10.40;58.90;;;;;;6276460;28;20664;-82
2023/03/29 16:15:10;;;;;;;9.07;8.23;;;10.40;58.80;;;;;;6265047;28;20237;-79
2023/03/29 16:18:15;;;;;;;8.93;8.03;;;10.30;59.00;;;;;;6263411;28;20300;-79
2023/03/29 16:21:21;;;;;;;11.93;9.40;;;10.30;59.20;;;;;;6262891;28;20317;-79